createdAt,value
2017-11-27T00:00:35.131Z,99.29
2017-11-27T00:01:10.633Z,99.10
2017-11-27T00:01:46.312Z,99.34
2017-11-27T00:02:21.518Z,99.10
2017-11-27T00:02:56.529Z,99.53
2017-11-27T00:03:31.937Z,99.34
2017-11-27T00:04:07.249Z,99.48
2017-11-27T00:04:42.633Z,98.87
2017-11-27T00:05:18.198Z,98.77
2017-11-27T00:05:53.179Z,98.87
2017-11-27T00:06:28.589Z,98.87
2017-11-27T00:07:03.990Z,98.72
2017-11-27T00:07:39.169Z,98.82
2017-11-27T00:08:14.697Z,98.77
2017-11-27T00:08:50.196Z,98.77
2017-11-27T00:09:25.699Z,98.77
2017-11-27T00:10:00.905Z,98.44
2017-11-27T00:10:36.398Z,99.10
2017-11-27T00:11:11.604Z,99.29
2017-11-27T00:11:47.086Z,98.63
2017-11-27T00:12:22.392Z,98.82
2017-11-27T00:12:58.017Z,98.35
2017-11-27T00:13:33.330Z,98.72
2017-11-27T00:14:08.846Z,98.77
2017-11-27T00:14:44.230Z,98.91
2017-11-27T00:15:19.448Z,99.39
2017-11-27T00:15:54.668Z,99.29
2017-11-27T00:16:29.843Z,99.01
2017-11-27T00:17:05.061Z,99.10
2017-11-27T00:17:40.241Z,99.20
2017-11-27T00:18:15.781Z,99.20
2017-11-27T00:18:50.997Z,99.29
2017-11-27T00:19:26.757Z,99.48
2017-11-27T00:20:02.368Z,98.63
2017-11-27T00:20:37.768Z,98.63
2017-11-27T00:21:13.301Z,99.48
2017-11-27T00:21:48.503Z,99.39
2017-11-27T00:22:23.845Z,99.39
2017-11-27T00:22:59.372Z,99.29
2017-11-27T00:23:34.806Z,99.20
2017-11-27T00:24:10.032Z,98.63
2017-11-27T00:24:45.461Z,99.10
2017-11-27T00:25:20.462Z,98.44
2017-11-27T00:25:55.793Z,99.10
2017-11-27T00:26:30.800Z,98.82
2017-11-27T00:27:06.129Z,99.48
2017-11-27T00:27:41.832Z,99.01
2017-11-27T00:28:17.367Z,99.01
2017-11-27T00:28:52.779Z,99.39
2017-11-27T00:29:28.101Z,99.20
2017-11-27T00:30:03.499Z,99.48
2017-11-27T00:30:38.786Z,99.29
2017-11-27T00:31:14.191Z,99.39
2017-11-27T00:31:49.373Z,99.29
2017-11-27T00:32:24.781Z,99.48
2017-11-27T00:33:00.225Z,98.16
2017-11-27T00:33:35.500Z,98.02
2017-11-27T00:34:10.798Z,98.82
2017-11-27T00:34:46.494Z,98.72
2017-11-27T00:35:21.809Z,98.35
2017-11-27T00:35:57.318Z,97.97
2017-11-27T00:36:32.709Z,98.30
2017-11-27T00:37:08.014Z,98.49
2017-11-27T00:37:43.592Z,98.35
2017-11-27T00:38:18.899Z,98.58
2017-11-27T00:38:54.060Z,98.21
2017-11-27T00:39:29.240Z,98.77
2017-11-27T00:40:04.745Z,98.58
2017-11-27T00:40:40.537Z,98.49
2017-11-27T00:41:15.739Z,98.35
2017-11-27T00:41:51.121Z,98.35
2017-11-27T00:42:26.732Z,98.25
2017-11-27T00:43:02.237Z,98.44
2017-11-27T00:43:37.657Z,98.39
2017-11-27T00:44:12.968Z,98.16
2017-11-27T00:44:48.448Z,98.54
2017-11-27T00:45:23.849Z,98.35
2017-11-27T00:45:59.252Z,98.54
2017-11-27T00:46:34.742Z,98.25
2017-11-27T00:47:10.047Z,98.16
2017-11-27T00:47:45.729Z,98.49
2017-11-27T00:48:21.038Z,98.91
2017-11-27T00:48:56.176Z,98.72
2017-11-27T00:49:31.352Z,98.63
2017-11-27T00:50:06.567Z,98.35
2017-11-27T00:50:41.848Z,99.39
2017-11-27T00:51:17.356Z,98.91
2017-11-27T00:51:52.743Z,98.54
2017-11-27T00:52:28.273Z,98.54
2017-11-27T00:53:03.581Z,98.16
2017-11-27T00:53:38.693Z,98.21
2017-11-27T00:54:14.393Z,98.21
2017-11-27T00:54:49.684Z,98.39
2017-11-27T00:55:25.489Z,98.30
2017-11-27T00:56:00.772Z,97.83
2017-11-27T00:56:36.082Z,97.83
2017-11-27T00:57:11.366Z,97.83
2017-11-27T00:57:46.976Z,98.02
2017-11-27T00:58:22.159Z,98.39
2017-11-27T00:58:57.305Z,98.21
2017-11-27T00:59:32.682Z,98.21
2017-11-27T01:00:08.094Z,98.11
2017-11-27T01:00:43.973Z,97.92
2017-11-27T01:01:19.282Z,97.64
2017-11-27T01:01:54.463Z,98.30
2017-11-27T01:02:29.979Z,98.11
2017-11-27T01:03:05.562Z,98.02
2017-11-27T01:03:40.983Z,97.83
2017-11-27T01:04:16.188Z,98.02
2017-11-27T01:04:51.607Z,98.02
2017-11-27T01:05:27.091Z,97.64
2017-11-27T01:06:02.297Z,98.02
2017-11-27T01:06:37.582Z,97.92
2017-11-27T01:07:12.691Z,97.92
2017-11-27T01:07:47.968Z,97.92
2017-11-27T01:08:23.376Z,97.92
2017-11-27T01:08:58.583Z,97.73
2017-11-27T01:09:33.895Z,96.88
2017-11-27T01:10:09.373Z,97.26
2017-11-27T01:10:44.485Z,97.07
2017-11-27T01:11:19.460Z,97.92
2017-11-27T01:11:54.379Z,97.83
2017-11-27T01:12:29.252Z,98.02
2017-11-27T01:13:04.463Z,98.02
2017-11-27T01:13:39.741Z,97.92
2017-11-27T01:14:15.076Z,98.02
2017-11-27T01:14:50.355Z,98.11
2017-11-27T01:15:25.471Z,97.83
2017-11-27T01:16:00.549Z,97.92
2017-11-27T01:16:35.661Z,97.35
2017-11-27T01:17:10.643Z,98.21
2017-11-27T01:17:45.955Z,98.02
2017-11-27T01:18:21.133Z,97.73
2017-11-27T01:18:56.367Z,97.83
2017-11-27T01:19:31.745Z,97.83
2017-11-27T01:20:07.072Z,97.26
2017-11-27T01:20:42.359Z,97.07
2017-11-27T01:21:17.684Z,97.26
2017-11-27T01:21:52.860Z,97.26
2017-11-27T01:22:27.971Z,97.92
2017-11-27T01:23:03.171Z,97.83
2017-11-27T01:23:38.602Z,97.26
2017-11-27T01:24:14.008Z,97.07
2017-11-27T01:24:49.421Z,97.45
2017-11-27T01:25:24.601Z,97.07
2017-11-27T01:26:00.024Z,96.78
2017-11-27T01:26:35.507Z,97.26
2017-11-27T01:27:10.914Z,97.35
2017-11-27T01:27:46.200Z,97.73
2017-11-27T01:28:21.412Z,97.26
2017-11-27T01:28:56.991Z,97.45
2017-11-27T01:29:32.249Z,97.16
2017-11-27T01:30:07.628Z,97.45
2017-11-27T01:30:43.241Z,97.45
2017-11-27T01:31:18.428Z,97.07
2017-11-27T01:31:53.532Z,97.26
2017-11-27T01:32:28.712Z,97.45
2017-11-27T01:33:03.823Z,97.45
2017-11-27T01:33:39.006Z,96.88
2017-11-27T01:34:14.362Z,96.59
2017-11-27T01:34:49.639Z,97.07
2017-11-27T01:35:25.152Z,96.88
2017-11-27T01:36:00.232Z,96.78
2017-11-27T01:36:35.547Z,96.88
2017-11-27T01:37:11.123Z,96.78
2017-11-27T01:37:46.537Z,96.59
2017-11-27T01:38:21.818Z,96.78
2017-11-27T01:38:57.235Z,96.78
2017-11-27T01:39:32.540Z,97.07
2017-11-27T01:40:07.757Z,96.69
2017-11-27T01:40:43.224Z,96.41
2017-11-27T01:41:18.641Z,96.78
2017-11-27T01:41:53.822Z,96.78
2017-11-27T01:42:29.032Z,97.54
2017-11-27T01:43:04.111Z,97.07
2017-11-27T01:43:39.436Z,97.26
2017-11-27T01:44:14.836Z,96.50
2017-11-27T01:44:50.044Z,97.26
2017-11-27T01:45:25.637Z,96.88
2017-11-27T01:46:01.043Z,96.97
2017-11-27T01:46:36.527Z,96.78
2017-11-27T01:47:11.735Z,96.78
2017-11-27T01:47:46.921Z,97.07
2017-11-27T01:48:22.130Z,96.69
2017-11-27T01:48:57.436Z,96.59
2017-11-27T01:49:32.873Z,96.88
2017-11-27T01:50:08.181Z,96.78
2017-11-27T01:50:44.296Z,97.35
2017-11-27T01:51:19.678Z,97.07
2017-11-27T01:51:56.599Z,96.88
2017-11-27T01:52:32.074Z,96.59
2017-11-27T01:53:07.497Z,96.97
2017-11-27T01:53:42.982Z,96.41
2017-11-27T01:54:18.557Z,96.22
2017-11-27T01:54:54.041Z,96.78
2017-11-27T01:55:29.548Z,96.41
2017-11-27T01:56:05.131Z,96.50
2017-11-27T01:56:40.438Z,96.41
2017-11-27T01:57:16.235Z,96.31
2017-11-27T01:57:51.436Z,96.31
2017-11-27T01:58:26.508Z,96.31
2017-11-27T01:59:01.715Z,96.22
2017-11-27T01:59:37.029Z,97.07
2017-11-27T02:00:12.380Z,96.88
2017-11-27T02:00:47.559Z,96.97
2017-11-27T02:01:22.773Z,97.26
2017-11-27T02:01:58.155Z,97.26
2017-11-27T02:02:33.569Z,96.88
2017-11-27T02:03:08.758Z,97.26
2017-11-27T02:03:44.268Z,96.59
2017-11-27T02:04:19.852Z,96.69
2017-11-27T02:04:55.086Z,96.22
2017-11-27T02:05:30.374Z,96.88
2017-11-27T02:06:05.998Z,97.26
2017-11-27T02:06:40.982Z,97.16
2017-11-27T02:07:16.304Z,97.35
2017-11-27T02:07:51.769Z,97.16
2017-11-27T02:08:27.188Z,97.26
2017-11-27T02:09:02.671Z,97.26
2017-11-27T02:09:38.420Z,97.07
2017-11-27T02:10:13.803Z,96.59
2017-11-27T02:10:49.012Z,96.78
2017-11-27T02:11:24.491Z,96.78
2017-11-27T02:11:59.600Z,97.16
2017-11-27T02:12:35.084Z,97.45
2017-11-27T02:13:10.199Z,96.78
2017-11-27T02:13:45.494Z,96.88
2017-11-27T02:14:20.897Z,97.26
2017-11-27T02:14:56.111Z,97.64
2017-11-27T02:15:31.413Z,97.92
2017-11-27T02:16:06.503Z,97.92
2017-11-27T02:16:41.812Z,97.45
2017-11-27T02:17:17.016Z,96.41
2017-11-27T02:17:52.112Z,96.97
2017-11-27T02:18:27.395Z,97.26
2017-11-27T02:19:02.509Z,97.26
2017-11-27T02:19:38.318Z,97.35
2017-11-27T02:20:13.525Z,97.54
2017-11-27T02:20:48.609Z,97.26
2017-11-27T02:21:24.011Z,97.45
2017-11-27T02:21:59.591Z,97.07
2017-11-27T02:22:34.598Z,96.88
2017-11-27T02:23:09.985Z,96.97
2017-11-27T02:23:45.200Z,96.97
2017-11-27T02:24:20.276Z,96.88
2017-11-27T02:24:55.710Z,97.45
2017-11-27T02:25:30.897Z,97.35
2017-11-27T02:26:06.094Z,97.45
2017-11-27T02:26:41.281Z,97.35
2017-11-27T02:27:16.585Z,97.16
2017-11-27T02:27:51.859Z,97.45
2017-11-27T02:28:26.870Z,97.26
2017-11-27T02:29:02.156Z,97.16
2017-11-27T02:29:37.364Z,97.26
2017-11-27T02:30:12.930Z,97.45
2017-11-27T02:30:48.572Z,97.26
2017-11-27T02:31:24.375Z,97.45
2017-11-27T02:31:59.584Z,97.45
2017-11-27T02:32:35.266Z,96.97
2017-11-27T02:33:10.572Z,97.35
2017-11-27T02:33:45.855Z,97.35
2017-11-27T02:34:21.075Z,97.45
2017-11-27T02:34:56.276Z,97.35
2017-11-27T02:35:31.879Z,97.64
2017-11-27T02:36:07.155Z,97.07
2017-11-27T02:36:42.846Z,97.45
2017-11-27T02:37:18.027Z,97.16
2017-11-27T02:37:53.246Z,97.07
2017-11-27T02:38:28.438Z,97.16
2017-11-27T02:39:03.941Z,97.64
2017-11-27T02:39:39.115Z,97.35
2017-11-27T02:40:14.359Z,97.45
2017-11-27T02:40:49.642Z,96.97
2017-11-27T02:41:25.152Z,97.07
2017-11-27T02:42:00.524Z,96.97
2017-11-27T02:42:35.879Z,97.26
2017-11-27T02:43:11.143Z,98.11
2017-11-27T02:43:46.357Z,97.07
2017-11-27T02:44:21.540Z,96.69
2017-11-27T02:44:56.729Z,96.78
2017-11-27T02:45:31.778Z,96.69
2017-11-27T02:46:07.003Z,97.07
2017-11-27T02:46:42.389Z,96.41
2017-11-27T02:47:17.892Z,96.59
2017-11-27T02:47:53.377Z,96.78
2017-11-27T02:48:28.897Z,96.78
2017-11-27T02:49:04.373Z,97.35
2017-11-27T02:49:39.692Z,97.07
2017-11-27T02:50:15.099Z,96.41
2017-11-27T02:50:50.502Z,96.59
2017-11-27T02:51:25.979Z,96.41
2017-11-27T02:52:01.286Z,97.07
2017-11-27T02:52:36.678Z,96.50
2017-11-27T02:53:12.017Z,96.50
2017-11-27T02:53:47.431Z,97.07
2017-11-27T02:54:22.939Z,97.26
2017-11-27T02:54:58.220Z,97.26
2017-11-27T02:55:33.860Z,97.45
2017-11-27T02:56:09.063Z,97.16
2017-11-27T02:56:44.376Z,97.26
2017-11-27T02:57:19.556Z,97.35
2017-11-27T02:57:54.864Z,96.59
2017-11-27T02:58:30.147Z,96.78
2017-11-27T02:59:05.453Z,97.45
2017-11-27T02:59:40.818Z,97.45
2017-11-27T03:00:16.059Z,97.26
2017-11-27T03:00:51.593Z,96.78
2017-11-27T03:01:27.457Z,97.16
2017-11-27T03:02:03.444Z,96.78
2017-11-27T03:02:38.936Z,96.50
2017-11-27T03:03:14.530Z,96.69
2017-11-27T03:03:49.834Z,96.31
2017-11-27T03:04:24.923Z,97.16
2017-11-27T03:05:00.337Z,96.78
2017-11-27T03:05:35.641Z,96.69
2017-11-27T03:06:11.045Z,96.88
2017-11-27T03:06:46.327Z,96.41
2017-11-27T03:07:21.736Z,96.41
2017-11-27T03:07:57.994Z,96.69
2017-11-27T03:08:33.337Z,96.78
2017-11-27T03:09:09.016Z,97.45
2017-11-27T03:09:44.360Z,97.35
2017-11-27T03:10:19.619Z,96.59
2017-11-27T03:10:55.123Z,96.59
2017-11-27T03:11:30.514Z,96.69
2017-11-27T03:12:06.029Z,96.59
2017-11-27T03:12:41.508Z,96.59
2017-11-27T03:13:16.628Z,96.97
2017-11-27T03:13:51.903Z,97.07
2017-11-27T03:14:27.443Z,97.07
2017-11-27T03:15:02.726Z,96.59
2017-11-27T03:15:38.068Z,97.07
2017-11-27T03:16:13.535Z,97.26
2017-11-27T03:16:48.745Z,97.07
2017-11-27T03:17:24.133Z,96.69
2017-11-27T03:17:59.835Z,97.54
2017-11-27T03:18:35.217Z,96.88
2017-11-27T03:19:10.522Z,97.07
2017-11-27T03:19:45.696Z,97.07
2017-11-27T03:20:21.345Z,96.59
2017-11-27T03:20:56.819Z,96.59
2017-11-27T03:21:32.135Z,96.41
2017-11-27T03:22:07.502Z,96.78
2017-11-27T03:22:43.216Z,96.88
2017-11-27T03:23:18.387Z,96.41
2017-11-27T03:23:54.409Z,96.41
2017-11-27T03:24:29.152Z,96.59
2017-11-27T03:25:04.255Z,97.07
2017-11-27T03:25:39.575Z,96.59
2017-11-27T03:26:14.881Z,96.88
2017-11-27T03:26:50.361Z,96.97
2017-11-27T03:27:25.469Z,96.78
2017-11-27T03:28:00.745Z,96.88
2017-11-27T03:28:35.859Z,96.78
2017-11-27T03:29:11.238Z,97.26
2017-11-27T03:29:46.849Z,96.69
2017-11-27T03:30:22.127Z,96.78
2017-11-27T03:30:57.741Z,96.78
2017-11-27T03:31:33.011Z,96.78
2017-11-27T03:32:08.315Z,96.78
2017-11-27T03:32:44.019Z,96.59
2017-11-27T03:33:19.477Z,96.78
2017-11-27T03:33:54.652Z,96.59
2017-11-27T03:34:30.360Z,97.73
2017-11-27T03:35:05.636Z,97.35
2017-11-27T03:35:40.967Z,96.78
2017-11-27T03:36:16.346Z,97.45
2017-11-27T03:36:51.902Z,96.88
2017-11-27T03:37:27.094Z,96.59
2017-11-27T03:38:02.398Z,96.69
2017-11-27T03:38:37.573Z,96.97
2017-11-27T03:39:13.385Z,97.26
2017-11-27T03:39:48.591Z,97.07
2017-11-27T03:40:24.101Z,96.78
2017-11-27T03:40:59.305Z,96.88
2017-11-27T03:41:35.117Z,96.59
2017-11-27T03:42:10.407Z,96.69
2017-11-27T03:42:45.818Z,96.59
2017-11-27T03:43:21.098Z,96.78
2017-11-27T03:43:56.216Z,96.78
2017-11-27T03:44:31.800Z,96.03
2017-11-27T03:45:07.323Z,96.88
2017-11-27T03:45:42.614Z,96.50
2017-11-27T03:46:18.030Z,96.50
2017-11-27T03:46:53.215Z,96.97
2017-11-27T03:47:28.418Z,97.26
2017-11-27T03:48:03.615Z,97.07
2017-11-27T03:48:38.727Z,96.78
2017-11-27T03:49:14.002Z,96.88
2017-11-27T03:49:49.312Z,97.26
2017-11-27T03:50:24.711Z,96.97
2017-11-27T03:50:59.860Z,96.69
2017-11-27T03:51:34.820Z,97.07
2017-11-27T03:52:10.030Z,96.78
2017-11-27T03:52:45.712Z,96.78
2017-11-27T03:53:21.019Z,96.55
2017-11-27T03:53:56.701Z,96.83
2017-11-27T03:54:32.112Z,96.45
2017-11-27T03:55:07.397Z,96.55
2017-11-27T03:55:43.062Z,96.92
2017-11-27T03:56:18.340Z,96.73
2017-11-27T03:56:53.650Z,96.73
2017-11-27T03:57:29.166Z,96.64
2017-11-27T03:58:04.675Z,97.31
2017-11-27T03:58:39.855Z,96.73
2017-11-27T03:59:14.961Z,97.12
2017-11-27T03:59:50.589Z,96.55
2017-11-27T04:00:26.191Z,96.92
2017-11-27T04:01:01.497Z,96.73
2017-11-27T04:01:36.998Z,96.73
2017-11-27T04:02:12.181Z,97.12
2017-11-27T04:02:47.697Z,97.02
2017-11-27T04:03:22.976Z,96.26
2017-11-27T04:03:58.296Z,96.08
2017-11-27T04:04:33.497Z,96.55
2017-11-27T04:05:09.021Z,96.73
2017-11-27T04:05:44.298Z,96.64
2017-11-27T04:06:19.642Z,96.73
2017-11-27T04:06:55.023Z,96.73
2017-11-27T04:07:31.125Z,96.73
2017-11-27T04:08:06.510Z,96.08
2017-11-27T04:08:41.784Z,96.45
2017-11-27T04:09:17.397Z,96.64
2017-11-27T04:09:52.904Z,96.45
2017-11-27T04:10:28.016Z,96.83
2017-11-27T04:11:03.597Z,96.55
2017-11-27T04:11:39.277Z,96.64
2017-11-27T04:12:14.285Z,96.64
2017-11-27T04:12:49.556Z,96.83
2017-11-27T04:13:24.758Z,96.64
2017-11-27T04:13:59.938Z,96.26
2017-11-27T04:14:35.452Z,96.92
2017-11-27T04:15:10.839Z,96.64
2017-11-27T04:15:45.884Z,96.64
2017-11-27T04:16:21.297Z,96.92
2017-11-27T04:16:56.401Z,96.92
2017-11-27T04:17:31.488Z,97.12
2017-11-27T04:18:06.597Z,97.02
2017-11-27T04:18:41.881Z,96.64
2017-11-27T04:19:17.189Z,96.73
2017-11-27T04:19:52.163Z,96.64
2017-11-27T04:20:27.186Z,96.92
2017-11-27T04:21:02.492Z,96.36
2017-11-27T04:21:38.095Z,96.55
2017-11-27T04:22:13.476Z,96.45
2017-11-27T04:22:48.993Z,96.64
2017-11-27T04:23:24.379Z,96.55
2017-11-27T04:23:59.813Z,96.36
2017-11-27T04:24:35.002Z,97.12
2017-11-27T04:25:10.413Z,97.02
2017-11-27T04:25:45.793Z,96.83
2017-11-27T04:26:21.220Z,96.36
2017-11-27T04:26:56.101Z,96.92
2017-11-27T04:27:31.522Z,96.73
2017-11-27T04:28:06.757Z,96.55
2017-11-27T04:28:42.271Z,96.92
2017-11-27T04:29:17.545Z,97.12
2017-11-27T04:29:52.956Z,96.73
2017-11-27T04:30:28.536Z,96.64
2017-11-27T04:31:04.141Z,96.64
2017-11-27T04:31:39.653Z,96.36
2017-11-27T04:32:14.936Z,96.36
2017-11-27T04:32:50.112Z,96.64
2017-11-27T04:33:25.626Z,96.55
2017-11-27T04:34:00.923Z,96.55
2017-11-27T04:34:36.039Z,96.45
2017-11-27T04:35:11.314Z,96.92
2017-11-27T04:35:46.424Z,96.73
2017-11-27T04:36:21.549Z,96.26
2017-11-27T04:36:57.253Z,96.83
2017-11-27T04:37:32.538Z,96.55
2017-11-27T04:38:08.043Z,96.26
2017-11-27T04:38:43.321Z,96.73
2017-11-27T04:39:18.732Z,96.36
2017-11-27T04:39:54.005Z,96.55
2017-11-27T04:40:29.418Z,96.64
2017-11-27T04:41:04.916Z,96.64
2017-11-27T04:41:40.844Z,96.36
2017-11-27T04:42:16.232Z,96.36
2017-11-27T04:42:51.632Z,96.92
2017-11-27T04:43:26.741Z,96.64
2017-11-27T04:44:02.252Z,96.73
2017-11-27T04:44:37.343Z,96.73
2017-11-27T04:45:12.635Z,96.36
2017-11-27T04:45:48.113Z,96.45
2017-11-27T04:46:23.546Z,96.26
2017-11-27T04:46:58.826Z,96.55
2017-11-27T04:47:34.431Z,96.08
2017-11-27T04:48:09.852Z,96.64
2017-11-27T04:48:45.062Z,96.64
2017-11-27T04:49:20.846Z,96.26
2017-11-27T04:49:56.180Z,96.64
2017-11-27T04:50:31.584Z,96.83
2017-11-27T04:51:06.893Z,96.83
2017-11-27T04:51:42.200Z,96.45
2017-11-27T04:52:17.414Z,96.64
2017-11-27T04:52:52.490Z,96.83
2017-11-27T04:53:27.921Z,96.45
2017-11-27T04:54:03.198Z,96.83
2017-11-27T04:54:38.511Z,96.26
2017-11-27T04:55:13.888Z,96.36
2017-11-27T04:55:49.196Z,96.45
2017-11-27T04:56:24.380Z,96.73
2017-11-27T04:56:59.807Z,96.45
2017-11-27T04:57:34.887Z,96.36
2017-11-27T04:58:10.293Z,96.92
2017-11-27T04:58:45.576Z,96.36
2017-11-27T04:59:20.992Z,96.73
2017-11-27T04:59:56.266Z,96.92
2017-11-27T05:00:31.835Z,96.73
2017-11-27T05:01:07.114Z,96.92
2017-11-27T05:01:42.550Z,96.45
2017-11-27T05:02:17.633Z,96.36
2017-11-27T05:02:53.275Z,95.79
2017-11-27T05:03:28.551Z,96.73
2017-11-27T05:04:04.168Z,96.17
2017-11-27T05:04:39.552Z,96.45
2017-11-27T05:05:15.099Z,96.83
2017-11-27T05:05:50.278Z,96.36
2017-11-27T05:06:25.799Z,96.17
2017-11-27T05:07:01.497Z,96.64
2017-11-27T05:07:36.611Z,96.73
2017-11-27T05:08:12.131Z,96.64
2017-11-27T05:08:47.540Z,96.83
2017-11-27T05:09:22.427Z,95.98
2017-11-27T05:09:57.840Z,96.17
2017-11-27T05:10:33.312Z,95.88
2017-11-27T05:11:08.838Z,96.26
2017-11-27T05:11:43.833Z,96.45
2017-11-27T05:12:19.041Z,96.92
2017-11-27T05:12:54.720Z,96.64
2017-11-27T05:13:30.123Z,96.55
2017-11-27T05:14:05.406Z,96.73
2017-11-27T05:14:40.412Z,96.26
2017-11-27T05:15:15.803Z,96.36
2017-11-27T05:15:51.311Z,96.92
2017-11-27T05:16:26.593Z,95.88
2017-11-27T05:17:01.931Z,96.17
2017-11-27T05:17:37.446Z,96.64
2017-11-27T05:18:12.595Z,96.73
2017-11-27T05:18:48.175Z,96.73
2017-11-27T05:19:23.513Z,96.17
2017-11-27T05:19:58.960Z,96.64
2017-11-27T05:20:34.277Z,96.45
2017-11-27T05:21:09.453Z,96.36
2017-11-27T05:21:44.889Z,96.64
2017-11-27T05:22:20.247Z,95.88
2017-11-27T05:22:55.857Z,96.17
2017-11-27T05:23:30.838Z,96.17
2017-11-27T05:24:06.442Z,96.08
2017-11-27T05:24:41.776Z,96.08
2017-11-27T05:25:16.990Z,96.17
2017-11-27T05:25:52.374Z,96.83
2017-11-27T05:26:27.681Z,96.55
2017-11-27T05:27:02.978Z,96.41
2017-11-27T05:27:38.392Z,95.98
2017-11-27T05:28:13.777Z,95.93
2017-11-27T05:28:49.390Z,95.93
2017-11-27T05:29:24.676Z,96.17
2017-11-27T05:29:59.978Z,95.93
2017-11-27T05:30:36.151Z,96.59
2017-11-27T05:31:11.561Z,96.55
2017-11-27T05:31:46.846Z,95.74
2017-11-27T05:32:22.576Z,96.12
2017-11-27T05:32:57.907Z,95.88
2017-11-27T05:33:33.218Z,95.93
2017-11-27T05:34:08.496Z,95.98
2017-11-27T05:34:43.624Z,96.12
2017-11-27T05:35:19.007Z,96.31
2017-11-27T05:35:54.506Z,96.88
2017-11-27T05:36:29.892Z,97.07
2017-11-27T05:37:05.225Z,96.12
2017-11-27T05:37:40.511Z,96.22
2017-11-27T05:38:15.512Z,95.74
2017-11-27T05:38:50.918Z,96.31
2017-11-27T05:39:26.425Z,95.84
2017-11-27T05:40:01.698Z,95.84
2017-11-27T05:40:36.904Z,95.93
2017-11-27T05:41:12.283Z,96.22
2017-11-27T05:41:47.589Z,96.03
2017-11-27T05:42:23.107Z,95.93
2017-11-27T05:42:58.508Z,95.93
2017-11-27T05:43:33.885Z,95.93
2017-11-27T05:44:09.293Z,96.78
2017-11-27T05:44:44.780Z,96.78
2017-11-27T05:45:20.397Z,96.59
2017-11-27T05:45:55.479Z,95.84
2017-11-27T05:46:30.779Z,96.03
2017-11-27T05:47:06.083Z,96.41
2017-11-27T05:47:41.490Z,96.41
2017-11-27T05:48:16.868Z,96.59
2017-11-27T05:48:52.110Z,96.59
2017-11-27T05:49:27.520Z,96.59
2017-11-27T05:50:03.137Z,96.50
2017-11-27T05:50:38.310Z,96.69
2017-11-27T05:51:13.716Z,96.69
2017-11-27T05:51:49.096Z,96.59
2017-11-27T05:52:24.427Z,96.50
2017-11-27T05:52:59.822Z,96.69
2017-11-27T05:53:35.225Z,96.88
2017-11-27T05:54:10.908Z,96.88
2017-11-27T05:54:46.308Z,96.88
2017-11-27T05:55:21.484Z,96.69
2017-11-27T05:55:56.995Z,96.03
2017-11-27T05:56:32.281Z,96.59
2017-11-27T05:57:07.612Z,96.78
2017-11-27T05:57:42.986Z,96.50
2017-11-27T05:58:18.505Z,96.22
2017-11-27T05:58:53.595Z,96.12
2017-11-27T05:59:28.895Z,96.50
2017-11-27T06:00:04.167Z,96.22
2017-11-27T06:00:39.579Z,96.50
2017-11-27T06:01:14.860Z,96.69
2017-11-27T06:01:50.784Z,97.16
2017-11-27T06:02:26.606Z,96.50
2017-11-27T06:03:02.120Z,96.31
2017-11-27T06:03:37.420Z,96.41
2017-11-27T06:04:12.543Z,96.59
2017-11-27T06:04:47.929Z,96.22
2017-11-27T06:05:23.239Z,95.74
2017-11-27T06:05:58.421Z,95.74
2017-11-27T06:06:33.730Z,96.12
2017-11-27T06:07:09.306Z,95.74
2017-11-27T06:07:44.741Z,95.74
2017-11-27T06:08:20.117Z,95.84
2017-11-27T06:08:55.521Z,95.74
2017-11-27T06:09:31.100Z,96.12
2017-11-27T06:10:06.509Z,95.93
2017-11-27T06:10:41.791Z,95.84
2017-11-27T06:11:16.796Z,95.55
2017-11-27T06:11:52.323Z,95.84
2017-11-27T06:12:27.649Z,95.84
2017-11-27T06:13:02.921Z,95.74
2017-11-27T06:13:38.037Z,95.45
2017-11-27T06:14:13.311Z,95.65
2017-11-27T06:14:48.417Z,95.84
2017-11-27T06:15:23.501Z,95.65
2017-11-27T06:15:59.016Z,96.12
2017-11-27T06:16:34.589Z,95.65
2017-11-27T06:17:09.790Z,95.55
2017-11-27T06:17:45.001Z,96.22
2017-11-27T06:18:20.310Z,95.93
2017-11-27T06:18:55.694Z,95.84
2017-11-27T06:19:30.899Z,95.93
2017-11-27T06:20:06.284Z,95.84
2017-11-27T06:20:41.698Z,95.93
2017-11-27T06:21:16.980Z,95.45
2017-11-27T06:21:51.989Z,95.93
2017-11-27T06:22:27.502Z,95.93
2017-11-27T06:23:03.015Z,95.55
2017-11-27T06:23:38.400Z,95.45
2017-11-27T06:24:13.418Z,95.26
2017-11-27T06:24:48.899Z,95.36
2017-11-27T06:25:24.335Z,95.26
2017-11-27T06:25:59.914Z,95.74
2017-11-27T06:26:35.232Z,94.51
2017-11-27T06:27:10.439Z,94.98
2017-11-27T06:27:45.878Z,94.98
2017-11-27T06:28:20.969Z,95.65
2017-11-27T06:28:56.075Z,95.55
2017-11-27T06:29:31.557Z,95.36
2017-11-27T06:30:06.666Z,95.36
2017-11-27T06:30:41.958Z,95.60
2017-11-27T06:31:17.170Z,95.07
2017-11-27T06:31:52.448Z,95.26
2017-11-27T06:32:27.957Z,95.26
2017-11-27T06:33:03.261Z,95.55
2017-11-27T06:33:38.473Z,95.45
2017-11-27T06:34:13.755Z,95.74
2017-11-27T06:34:49.060Z,95.45
2017-11-27T06:35:24.550Z,95.41
2017-11-27T06:35:59.467Z,95.36
2017-11-27T06:36:34.850Z,95.26
2017-11-27T06:37:10.066Z,94.98
2017-11-27T06:37:45.359Z,94.79
2017-11-27T06:38:20.600Z,94.70
2017-11-27T06:38:55.692Z,95.50
2017-11-27T06:39:30.904Z,95.69
2017-11-27T06:40:06.292Z,95.45
2017-11-27T06:40:41.394Z,95.26
2017-11-27T06:41:16.675Z,95.45
2017-11-27T06:41:51.887Z,94.70
2017-11-27T06:42:27.067Z,94.60
2017-11-27T06:43:02.379Z,95.45
2017-11-27T06:43:37.605Z,95.26
2017-11-27T06:44:12.919Z,95.07
2017-11-27T06:44:48.218Z,94.98
2017-11-27T06:45:23.733Z,95.45
2017-11-27T06:45:58.918Z,95.65
2017-11-27T06:46:34.142Z,95.07
2017-11-27T06:47:09.524Z,95.74
2017-11-27T06:47:44.941Z,95.45
2017-11-27T06:48:20.126Z,95.55
2017-11-27T06:48:55.370Z,95.55
2017-11-27T06:49:30.854Z,94.93
2017-11-27T06:50:05.972Z,95.07
2017-11-27T06:50:41.256Z,94.93
2017-11-27T06:51:16.572Z,95.60
2017-11-27T06:51:52.148Z,95.31
2017-11-27T06:52:27.360Z,94.93
2017-11-27T06:53:02.570Z,94.84
2017-11-27T06:53:37.977Z,95.31
2017-11-27T06:54:13.259Z,94.74
2017-11-27T06:54:48.482Z,94.84
2017-11-27T06:55:23.785Z,94.56
2017-11-27T06:55:59.209Z,94.74
2017-11-27T06:56:34.592Z,94.37
2017-11-27T06:57:10.101Z,94.65
2017-11-27T06:57:45.381Z,94.84
2017-11-27T06:58:20.692Z,94.56
2017-11-27T06:58:56.003Z,94.37
2017-11-27T06:59:31.668Z,94.56
2017-11-27T07:00:06.926Z,94.27
2017-11-27T07:00:42.157Z,94.56
2017-11-27T07:01:17.757Z,94.74
2017-11-27T07:01:53.266Z,94.37
2017-11-27T07:02:28.843Z,94.46
2017-11-27T07:03:03.864Z,94.56
2017-11-27T07:03:39.059Z,94.84
2017-11-27T07:04:14.577Z,94.27
2017-11-27T07:04:49.588Z,94.56
2017-11-27T07:05:24.799Z,94.27
2017-11-27T07:06:00.374Z,94.84
2017-11-27T07:06:35.986Z,94.27
2017-11-27T07:07:11.169Z,94.18
2017-11-27T07:07:46.579Z,94.84
2017-11-27T07:08:21.968Z,94.84
2017-11-27T07:08:57.683Z,94.46
2017-11-27T07:09:32.969Z,94.65
2017-11-27T07:10:08.016Z,94.27
2017-11-27T07:10:43.396Z,94.65
2017-11-27T07:11:18.807Z,95.22
2017-11-27T07:11:53.884Z,94.93
2017-11-27T07:12:28.914Z,94.46
2017-11-27T07:13:04.297Z,94.65
2017-11-27T07:13:39.308Z,94.93
2017-11-27T07:14:14.482Z,94.93
2017-11-27T07:14:49.896Z,95.41
2017-11-27T07:15:25.311Z,95.22
2017-11-27T07:16:00.624Z,95.03
2017-11-27T07:16:35.906Z,95.22
2017-11-27T07:17:11.209Z,96.17
2017-11-27T07:17:46.695Z,96.08
2017-11-27T07:18:22.106Z,96.45
2017-11-27T07:18:57.292Z,96.08
2017-11-27T07:19:32.509Z,96.08
2017-11-27T07:20:07.995Z,95.88
2017-11-27T07:20:43.542Z,95.69
2017-11-27T07:21:18.826Z,95.50
2017-11-27T07:21:54.147Z,95.12
2017-11-27T07:22:29.622Z,95.50
2017-11-27T07:23:04.931Z,95.69
2017-11-27T07:23:40.212Z,96.08
2017-11-27T07:24:15.829Z,96.73
2017-11-27T07:24:51.113Z,96.36
2017-11-27T07:25:26.527Z,96.45
2017-11-27T07:26:01.837Z,95.60
2017-11-27T07:26:37.245Z,95.31
2017-11-27T07:27:12.628Z,95.60
2017-11-27T07:27:48.039Z,96.17
2017-11-27T07:28:23.738Z,95.69
2017-11-27T07:28:59.346Z,95.41
2017-11-27T07:29:35.034Z,96.08
2017-11-27T07:30:10.346Z,95.98
2017-11-27T07:30:45.728Z,95.88
2017-11-27T07:31:21.063Z,95.69
2017-11-27T07:31:56.049Z,95.50
2017-11-27T07:32:31.457Z,96.08
2017-11-27T07:33:06.844Z,95.98
2017-11-27T07:33:42.071Z,96.08
2017-11-27T07:34:17.555Z,96.08
2017-11-27T07:34:53.064Z,96.83
2017-11-27T07:35:28.053Z,96.64